Currently 45°F in Anza, California, USA
45°F
56°F / 44°F
calm
0.00"
Monday, December 6, 2021 6:39 AM PST

Anza, California Weather Summary
Last 36 Hours

Temperature Winds Hourly Humidity Dewpoint
Time Report Norm Report Norm Max Gusts Precip. Rpt. Norm Rpt. Norm Pressure
1Mon 06:39 AM  44.5°F  43°F  calm  4 mph  none  0.00"  36%  68%  18°F  33°F  29.99"
3Mon 06:38 AM  44.5°F  43°F  calm  3 mph  none  ----  36%  68%  18°F  33°F  29.99"
Mon 06:00 AM  49.5°F  43°F  calm  3 mph  8 mph  0.00"  30%  69%  18°F  33°F  29.99"
Mon 05:00 AM  50.2°F  43°F  calm  3 mph  5 mph  0.00"  29%  69%  18°F  33°F  29.97"
Mon 04:00 AM  47.3°F  43°F  calm  3 mph  3 mph  0.00"  31%  69%  17°F  33°F  29.98"
Mon 03:00 AM  52.9°F  43°F  calm  3 mph  8 mph  0.00"  24%  69%  16°F  33°F  29.98"
Mon 02:00 AM  52.5°F  43°F  calm  3 mph  5 mph  0.00"  24%  69%  15°F  33°F  29.99"
Mon 01:00 AM  49.9°F  43°F  calm  3 mph  3 mph  0.00"  26%  70%  15°F  33°F  29.99"
2Mon 12:00 AM  55.5°F  43°F  calm  3 mph  10 mph  0.00"  20%  71%  14°F  33°F  29.98"
Sun 11:00 PM  51.4°F  43°F  calm  3 mph  6 mph  0.00"  24%  70%  14°F  34°F  29.99"
Sun 10:00 PM  49.0°F  44°F  calm  3 mph  7 mph  0.00"  27%  70%  15°F  34°F  29.99"
Sun 09:00 PM  48.3°F  45°F  calm  3 mph  none  0.00"  32%  69%  18°F  35°F  29.99"
Sun 08:00 PM  45.2°F  45°F  calm  3 mph  none  0.00"  36%  68%  19°F  35°F  29.98"
Sun 07:00 PM  49.7°F  46°F  calm  3 mph  3 mph  0.00"  36%  66%  23°F  35°F  29.98"
Sun 06:00 PM  54.1°F  48°F  calm  3 mph  none  0.00"  34%  64%  25°F  36°F  29.97"
Sun 05:00 PM  59.6°F  51°F  calm  4 mph  10 mph  0.00"  27%  60%  24°F  37°F  29.95"
Sun 04:00 PM  67.1°F  55°F  7 mph NW  5 mph  11 mph  0.00"  18%  53%  20°F  37°F  29.96"
Sun 03:00 PM  71.7°F  57°F  4 mph NW  6 mph  13 mph  0.00"  14%  49%  17°F  37°F  29.95"
Sun 02:00 PM  73.6°F  58°F  3 mph W  7 mph  19 mph  0.00"  11%  47%  13°F  37°F  29.95"
Sun 01:00 PM  73.1°F  58°F  7 mph NE  7 mph  16 mph  0.00"  11%  45%  14°F  37°F  29.96"
Sun 12:00 PM  72.7°F  58°F  3 mph NE  7 mph  19 mph  0.00"  13%  46%  17°F  37°F  29.98"
Sun 11:00 AM  70.4°F  58°F  5 mph E  7 mph  17 mph  0.00"  14%  47%  17°F  36°F  30.00"
Sun 10:00 AM  67.7°F  56°F  10 mph E  6 mph  22 mph  0.00"  16%  49%  17°F  37°F  30.02"
Sun 09:00 AM  65.8°F  53°F  11 mph NE  5 mph  18 mph  0.00"  17%  54%  18°F  37°F  30.03"
Sun 08:00 AM  62.8°F  49°F  8 mph NE  3 mph  19 mph  0.00"  21%  61%  20°F  36°F  30.01"
Sun 07:00 AM  57.6°F  43°F  1 mph NE  3 mph  14 mph  0.00"  26%  69%  21°F  33°F  30.00"
Sun 06:00 AM  55.7°F  42°F  4 mph S  3 mph  13 mph  0.00"  28%  70%  22°F  33°F  29.99"
Sun 05:00 AM  48.9°F  42°F  calm  3 mph  9 mph  0.00"  43%  70%  26°F  33°F  29.98"
Sun 04:00 AM  46.2°F  42°F  calm  3 mph  3 mph  0.00"  46%  70%  26°F  33°F  29.99"
Sun 03:00 AM  46.2°F  42°F  calm  3 mph  5 mph  0.00"  48%  70%  27°F  33°F  29.99"
Sun 02:00 AM  45.9°F  42°F  calm  3 mph  7 mph  0.00"  47%  69%  26°F  33°F  30.01"
Sun 01:00 AM  49.2°F  42°F  4 mph SE  3 mph  10 mph  0.00"  46%  70%  28°F  33°F  30.01"
Sun 12:00 AM  45.6°F  43°F  calm  3 mph  4 mph  0.00"  53%  71%  28°F  33°F  30.02"
Sat 11:00 PM  46.4°F  43°F  calm  3 mph  3 mph  0.00"  50%  70%  28°F  33°F  30.04"
Sat 10:00 PM  43.8°F  44°F  calm  3 mph  1 mph  0.00"  58%  69%  29°F  34°F  30.04"
Sat 09:00 PM  44.3°F  45°F  calm  2 mph  1 mph  0.00"  57%  68%  29°F  34°F  30.04"
Sat 08:00 PM  48.0°F  45°F  calm  3 mph  8 mph  0.00"  52%  68%  30°F  35°F  30.03"
Sat 07:00 PM  50.3°F  46°F  calm  3 mph  6 mph  0.00"  52%  66%  33°F  35°F  30.01"

  1. Current weather data. No green row appears if the current weather data is also the high or low for the current day.
  2. High temperature for the current day.
  3. Low temperature for the current day.

The Anza, California weather pages are a service of WeatherCurrents. The Anza Valley is southwestern Riverside County, east of Temecula and Aguanga, south of Mount San Jacinto and west of Mount Santa Rosa.
Copyright ©2021  WeatherCurrents. All rights reserved. - Submit questions and comments - Privacy Policy

This page automatically refreshes every 10 minutes.